createdAt,value
2018-12-26T00:00:07.662Z,20.30
2018-12-26T00:02:36.856Z,21.07
2018-12-26T00:05:05.947Z,21.37
2018-12-26T00:07:35.306Z,18.67
2018-12-26T00:10:04.314Z,20.30
2018-12-26T00:12:33.362Z,20.80
2018-12-26T00:15:02.615Z,21.45
2018-12-26T00:17:32.150Z,21.65
2018-12-26T00:20:01.721Z,20.00
2018-12-26T00:22:30.877Z,19.62
2018-12-26T00:25:00.197Z,19.62
2018-12-26T00:27:29.055Z,19.40
2018-12-26T00:29:58.064Z,20.10
2018-12-26T00:32:27.681Z,17.50
2018-12-26T00:34:57.285Z,18.00
2018-12-26T00:37:26.353Z,18.73
2018-12-26T00:39:55.343Z,18.85
2018-12-26T00:42:24.604Z,19.05
2018-12-26T00:44:53.648Z,19.05
2018-12-26T00:47:22.902Z,21.93
2018-12-26T00:49:51.775Z,21.77
2018-12-26T00:52:21.138Z,21.25
2018-12-26T00:54:50.112Z,22.60
2018-12-26T00:57:19.242Z,21.40
2018-12-26T00:59:48.561Z,24.07
2018-12-26T01:02:18.167Z,22.85
2018-12-26T01:04:47.406Z,21.77
2018-12-26T01:07:16.707Z,23.32
2018-12-26T01:09:45.774Z,21.65
2018-12-26T01:12:14.952Z,20.82
2018-12-26T01:14:43.956Z,20.97
2018-12-26T01:17:13.263Z,20.15
2018-12-26T01:19:42.542Z,19.07
2018-12-26T01:22:11.827Z,19.20
2018-12-26T01:24:41.668Z,19.82
2018-12-26T01:27:10.702Z,17.57
2018-12-26T01:29:40.373Z,20.10
2018-12-26T01:32:09.341Z,20.20
2018-12-26T01:34:38.323Z,18.73
2018-12-26T01:37:07.660Z,18.52
2018-12-26T01:39:36.921Z,19.52
2018-12-26T01:42:05.895Z,19.02
2018-12-26T01:44:35.581Z,21.10
2018-12-26T01:47:04.540Z,18.95
2018-12-26T01:49:33.781Z,19.98
2018-12-26T01:52:03.110Z,18.10
2018-12-26T01:54:32.282Z,19.67
2018-12-26T01:57:01.291Z,19.87
2018-12-26T01:59:30.597Z,18.70
2018-12-26T02:01:59.587Z,20.12
2018-12-26T02:04:28.911Z,19.82
2018-12-26T02:06:57.911Z,19.30
2018-12-26T02:09:27.207Z,17.85
2018-12-26T02:11:56.214Z,16.93
2018-12-26T02:14:26.679Z,18.00
2018-12-26T02:16:55.681Z,17.40
2018-12-26T02:19:24.828Z,17.17
2018-12-26T02:21:53.793Z,16.40
2018-12-26T02:24:22.769Z,17.45
2018-12-26T02:26:51.802Z,18.23
2018-12-26T02:29:21.099Z,16.15
2018-12-26T02:31:50.071Z,16.32
2018-12-26T02:34:19.021Z,17.35
2018-12-26T02:36:48.309Z,17.48
2018-12-26T02:39:17.628Z,17.32
2018-12-26T02:41:47.211Z,17.07
2018-12-26T02:44:16.588Z,16.35
2018-12-26T02:46:45.920Z,16.80
2018-12-26T02:49:15.210Z,17.90
2018-12-26T02:51:44.518Z,17.60
2018-12-26T02:54:13.531Z,17.07
2018-12-26T02:56:47.750Z,17.32
2018-12-26T02:59:13.802Z,16.67
2018-12-26T03:01:43.358Z,18.20
2018-12-26T03:04:12.355Z,18.40
2018-12-26T03:06:41.449Z,15.68
2018-12-26T03:09:10.392Z,17.20
2018-12-26T03:11:40.366Z,16.65
2018-12-26T03:14:09.365Z,17.42
2018-12-26T03:16:38.640Z,18.40
2018-12-26T03:19:07.623Z,17.17
2018-12-26T03:21:36.935Z,17.35
2018-12-26T03:24:06.244Z,15.88
2018-12-26T03:26:35.511Z,17.45
2018-12-26T03:29:04.550Z,18.30
2018-12-26T03:31:33.850Z,17.10
2018-12-26T03:34:02.834Z,17.60
2018-12-26T03:36:32.153Z,17.80
2018-12-26T03:39:01.193Z,17.40
2018-12-26T03:41:30.518Z,18.05
2018-12-26T03:44:00.095Z,17.90
2018-12-26T03:46:29.936Z,18.30
2018-12-26T03:48:59.085Z,17.30
2018-12-26T03:51:28.046Z,15.25
2018-12-26T03:53:57.045Z,18.95
2018-12-26T03:56:26.493Z,17.50
2018-12-26T03:58:55.655Z,17.12
2018-12-26T04:01:24.531Z,18.20
2018-12-26T04:03:53.822Z,18.30
2018-12-26T04:06:23.021Z,16.32
2018-12-26T04:08:52.561Z,17.87
2018-12-26T04:11:21.566Z,16.70
2018-12-26T04:13:51.231Z,15.85
2018-12-26T04:16:20.720Z,14.90
2018-12-26T04:18:52.915Z,16.62
2018-12-26T04:21:22.194Z,15.50
2018-12-26T04:23:51.415Z,15.90
2018-12-26T04:26:20.405Z,15.50
2018-12-26T04:28:49.393Z,17.02
2018-12-26T04:31:18.677Z,16.60
2018-12-26T04:33:47.655Z,16.35
2018-12-26T04:36:16.677Z,16.02
2018-12-26T04:38:45.968Z,16.90
2018-12-26T04:41:15.739Z,16.20
2018-12-26T04:43:44.724Z,16.90
2018-12-26T04:46:13.700Z,15.98
2018-12-26T04:48:43.503Z,16.48
2018-12-26T04:51:12.525Z,14.95
2018-12-26T04:53:42.203Z,16.60
2018-12-26T04:56:11.595Z,16.05
2018-12-26T04:58:40.628Z,17.45
2018-12-26T05:01:09.885Z,16.10
2018-12-26T05:03:38.819Z,16.15
2018-12-26T05:06:08.068Z,17.05
2018-12-26T05:08:37.387Z,16.50
2018-12-26T05:11:06.669Z,15.15
2018-12-26T05:13:36.484Z,15.30
2018-12-26T05:16:05.618Z,15.32
2018-12-26T05:18:34.780Z,16.35
2018-12-26T05:21:04.325Z,15.78
2018-12-26T05:23:33.987Z,16.30
2018-12-26T05:26:03.047Z,14.63
2018-12-26T05:28:32.387Z,15.68
2018-12-26T05:31:01.686Z,15.25
2018-12-26T05:33:30.935Z,15.55
2018-12-26T05:36:00.170Z,14.25
2018-12-26T05:38:29.480Z,15.58
2018-12-26T05:40:59.098Z,16.00
2018-12-26T05:43:28.019Z,14.38
2018-12-26T05:45:57.311Z,13.38
2018-12-26T05:48:26.539Z,15.53
2018-12-26T05:50:55.666Z,15.70
2018-12-26T05:53:25.361Z,14.28
2018-12-26T05:55:54.690Z,15.25
2018-12-26T05:58:24.024Z,15.28
2018-12-26T06:00:53.347Z,14.73
2018-12-26T06:03:22.594Z,16.57
2018-12-26T06:05:51.945Z,17.80
2018-12-26T06:08:20.962Z,15.85
2018-12-26T06:10:49.820Z,15.60
2018-12-26T06:13:18.692Z,17.23
2018-12-26T06:15:47.690Z,16.52
2018-12-26T06:18:17.249Z,16.85
2018-12-26T06:20:46.475Z,15.58
2018-12-26T06:23:15.436Z,13.90
2018-12-26T06:25:44.689Z,15.90
2018-12-26T06:28:13.963Z,15.85
2018-12-26T06:30:43.216Z,15.20
2018-12-26T06:33:12.167Z,18.10
2018-12-26T06:35:41.810Z,15.63
2018-12-26T06:38:11.162Z,13.80
2018-12-26T06:40:40.177Z,14.75
2018-12-26T06:43:09.162Z,12.85
2018-12-26T06:45:38.395Z,15.85
2018-12-26T06:48:07.540Z,14.35
2018-12-26T06:50:36.839Z,15.75
2018-12-26T06:53:05.825Z,17.85
2018-12-26T06:55:35.129Z,16.40
2018-12-26T06:58:04.182Z,16.12
2018-12-26T07:00:33.444Z,16.62
2018-12-26T07:03:03.044Z,18.20
2018-12-26T07:05:32.102Z,16.02
2018-12-26T07:08:01.838Z,18.00
2018-12-26T07:10:30.856Z,17.10
2018-12-26T07:13:00.168Z,16.73
2018-12-26T07:15:29.221Z,17.20
2018-12-26T07:17:58.539Z,17.77
2018-12-26T07:20:27.751Z,19.30
2018-12-26T07:22:56.934Z,20.27
2018-12-26T07:25:26.189Z,18.87
2018-12-26T07:27:55.268Z,17.52
2018-12-26T07:30:24.246Z,21.30
2018-12-26T07:32:53.262Z,18.77
2018-12-26T07:35:23.322Z,19.80
2018-12-26T07:37:52.833Z,18.80
2018-12-26T07:40:22.130Z,16.93
2018-12-26T07:42:51.348Z,17.30
2018-12-26T07:45:21.520Z,20.35
2018-12-26T07:47:50.853Z,18.02
2018-12-26T07:50:19.864Z,19.73
2018-12-26T07:52:49.157Z,17.92
2018-12-26T07:55:18.463Z,17.92
2018-12-26T07:57:47.952Z,18.85
2018-12-26T08:00:16.966Z,18.17
2018-12-26T08:02:46.236Z,16.95
2018-12-26T08:05:15.292Z,17.45
2018-12-26T08:07:44.738Z,18.20
2018-12-26T08:10:14.545Z,19.87
2018-12-26T08:12:44.041Z,16.05
2018-12-26T08:15:13.067Z,16.82
2018-12-26T08:17:42.663Z,19.25
2018-12-26T08:20:11.861Z,19.92
2018-12-26T08:22:41.468Z,19.45
2018-12-26T08:25:10.968Z,17.80
2018-12-26T08:27:40.586Z,19.40
2018-12-26T08:30:09.584Z,16.27
2018-12-26T08:32:38.623Z,17.40
2018-12-26T08:35:07.965Z,17.20
2018-12-26T08:37:37.698Z,15.80
2018-12-26T08:40:06.829Z,19.15
2018-12-26T08:42:36.339Z,17.77
2018-12-26T08:45:06.104Z,17.90
2018-12-26T08:47:35.038Z,18.77
2018-12-26T08:50:04.179Z,18.37
2018-12-26T08:52:33.167Z,18.62
2018-12-26T08:55:02.314Z,18.85
2018-12-26T08:57:31.571Z,19.05
2018-12-26T09:00:00.907Z,18.20
2018-12-26T09:02:29.897Z,17.42
2018-12-26T09:04:59.220Z,16.82
2018-12-26T09:07:28.190Z,17.55
2018-12-26T09:09:57.194Z,16.00
2018-12-26T09:12:26.274Z,17.95
2018-12-26T09:14:55.804Z,19.25
2018-12-26T09:17:24.776Z,17.80
2018-12-26T09:19:54.055Z,18.05
2018-12-26T09:22:23.093Z,18.60
2018-12-26T09:24:52.417Z,16.85
2018-12-26T09:27:21.476Z,18.10
2018-12-26T09:29:50.842Z,17.37
2018-12-26T09:32:19.851Z,18.25
2018-12-26T09:34:49.444Z,17.95
2018-12-26T09:37:18.878Z,18.02
2018-12-26T09:39:47.865Z,17.07
2018-12-26T09:42:16.861Z,19.73
2018-12-26T09:44:54.154Z,17.00
2018-12-26T09:47:17.020Z,20.27
2018-12-26T09:49:45.952Z,17.32
2018-12-26T09:52:14.942Z,16.30
2018-12-26T09:54:44.275Z,18.50
2018-12-26T09:57:13.516Z,18.30
2018-12-26T09:59:42.507Z,17.67
2018-12-26T10:02:12.156Z,19.15
2018-12-26T10:04:41.350Z,18.73
2018-12-26T10:07:10.310Z,18.62
2018-12-26T10:09:39.642Z,17.98
2018-12-26T10:12:09.064Z,18.98
2018-12-26T10:14:38.240Z,18.17
2018-12-26T10:17:07.169Z,16.75
2018-12-26T10:19:37.491Z,17.92
2018-12-26T10:22:07.045Z,17.12
2018-12-26T10:24:36.676Z,18.32
2018-12-26T10:27:05.975Z,18.92
2018-12-26T10:29:34.968Z,18.02
2018-12-26T10:32:04.297Z,18.62
2018-12-26T10:34:33.737Z,19.10
2018-12-26T10:37:03.196Z,18.77
2018-12-26T10:39:32.476Z,18.98
2018-12-26T10:42:01.782Z,18.62
2018-12-26T10:47:59.876Z,18.23
2018-12-26T10:50:29.481Z,19.35
2018-12-26T10:52:58.995Z,18.40
2018-12-26T10:55:28.036Z,17.95
2018-12-26T10:57:57.277Z,20.02
2018-12-26T11:00:26.309Z,19.45
2018-12-26T11:02:55.905Z,18.30
2018-12-26T11:05:29.550Z,17.77
2018-12-26T11:07:56.702Z,17.62
2018-12-26T11:10:26.354Z,17.35
2018-12-26T11:12:55.292Z,17.05
2018-12-26T11:15:24.493Z,18.30
2018-12-26T11:21:22.480Z,18.55
2018-12-26T11:23:52.097Z,15.85
2018-12-26T11:26:21.335Z,17.95
2018-12-26T11:28:50.942Z,18.77
2018-12-26T11:31:20.550Z,19.10
2018-12-26T11:33:49.559Z,18.10
2018-12-26T11:36:18.562Z,19.77
2018-12-26T11:38:48.369Z,19.92
2018-12-26T11:41:17.382Z,19.20
2018-12-26T11:43:46.644Z,19.77
2018-12-26T11:46:15.697Z,19.00
2018-12-26T11:48:45.545Z,18.82
2018-12-26T11:51:14.543Z,19.50
2018-12-26T11:53:43.743Z,18.50
2018-12-26T11:56:12.721Z,18.75
2018-12-26T11:58:41.761Z,21.68
2018-12-26T12:01:11.441Z,20.68
2018-12-26T12:03:40.453Z,19.70
2018-12-26T12:06:09.313Z,19.60
2018-12-26T12:08:38.526Z,19.23
2018-12-26T12:11:07.781Z,19.40
2018-12-26T12:13:36.780Z,17.45
2018-12-26T12:16:05.770Z,18.15
2018-12-26T12:18:35.015Z,18.45
2018-12-26T12:21:04.308Z,18.02
2018-12-26T12:23:34.009Z,18.67
2018-12-26T12:26:02.920Z,17.98
2018-12-26T12:28:32.205Z,18.77
2018-12-26T12:31:01.167Z,17.32
2018-12-26T12:33:30.131Z,18.23
2018-12-26T12:35:59.390Z,18.75
2018-12-26T12:38:28.611Z,18.20
2018-12-26T12:40:57.591Z,17.40
2018-12-26T12:43:27.464Z,16.93
2018-12-26T12:45:56.806Z,16.73
2018-12-26T12:48:25.813Z,17.12
2018-12-26T12:50:55.090Z,16.20
2018-12-26T12:53:24.089Z,16.80
2018-12-26T12:55:53.694Z,17.07
2018-12-26T12:58:23.095Z,17.23
2018-12-26T13:00:52.398Z,16.85
2018-12-26T13:03:22.352Z,16.45
2018-12-26T13:05:52.426Z,16.77
2018-12-26T13:08:21.733Z,17.02
2018-12-26T13:10:51.030Z,17.27
2018-12-26T13:13:20.328Z,16.50
2018-12-26T13:15:49.665Z,17.92
2018-12-26T13:18:18.938Z,17.85
2018-12-26T13:20:48.572Z,15.75
2018-12-26T13:23:17.910Z,17.05
2018-12-26T13:25:47.137Z,21.30
2018-12-26T13:28:16.337Z,18.10
2018-12-26T13:30:45.649Z,18.10
2018-12-26T13:33:15.042Z,19.35
2018-12-26T13:35:44.770Z,17.90
2018-12-26T13:38:13.787Z,17.80
2018-12-26T13:40:43.157Z,18.40
2018-12-26T13:43:12.135Z,18.52
2018-12-26T13:45:41.439Z,17.95
2018-12-26T13:48:10.741Z,17.12
2018-12-26T13:50:39.707Z,16.85
2018-12-26T13:53:08.677Z,17.32
2018-12-26T13:55:38.077Z,20.05
2018-12-26T13:58:06.952Z,18.40
2018-12-26T14:00:36.317Z,17.95
2018-12-26T14:03:05.512Z,19.60
2018-12-26T14:05:34.694Z,18.90
2018-12-26T14:08:04.021Z,18.30
2018-12-26T14:10:33.177Z,19.17
2018-12-26T14:13:02.454Z,19.05
2018-12-26T14:15:31.712Z,19.87
2018-12-26T14:18:00.669Z,19.20
2018-12-26T14:20:30.285Z,18.80
2018-12-26T14:22:59.421Z,18.65
2018-12-26T14:25:28.381Z,19.90
2018-12-26T14:27:57.377Z,17.80
2018-12-26T14:30:26.423Z,17.90
2018-12-26T14:32:55.840Z,19.70
2018-12-26T14:35:25.097Z,18.73
2018-12-26T14:37:54.106Z,19.25
2018-12-26T14:40:23.130Z,18.17
2018-12-26T14:42:52.328Z,21.50
2018-12-26T14:45:21.684Z,16.77
2018-12-26T14:47:51.057Z,18.12
2018-12-26T14:50:20.052Z,17.07
2018-12-26T14:52:49.389Z,19.37
2018-12-26T14:55:18.485Z,18.48
2018-12-26T14:57:47.451Z,19.73
2018-12-26T15:00:19.982Z,18.15
2018-12-26T15:02:47.701Z,17.52
2018-12-26T15:05:16.694Z,17.07
2018-12-26T15:07:46.002Z,19.10
2018-12-26T15:10:15.377Z,21.65
2018-12-26T15:12:44.698Z,17.32
2018-12-26T15:15:13.694Z,18.27
2018-12-26T15:17:43.031Z,17.70
2018-12-26T15:20:11.986Z,17.85
2018-12-26T15:22:41.190Z,20.27
2018-12-26T15:25:10.063Z,18.82
2018-12-26T15:27:39.593Z,18.20
2018-12-26T15:30:08.571Z,17.87
2018-12-26T15:32:37.574Z,17.50
2018-12-26T15:35:06.866Z,18.12
2018-12-26T15:37:36.088Z,16.97
2018-12-26T15:40:06.189Z,15.80
2018-12-26T15:42:35.744Z,17.05
2018-12-26T15:45:05.344Z,16.40
2018-12-26T15:47:34.809Z,19.17
2018-12-26T15:50:04.115Z,18.85
2018-12-26T15:52:33.141Z,18.02
2018-12-26T15:55:02.497Z,18.20
2018-12-26T15:57:31.906Z,19.07
2018-12-26T16:00:00.900Z,18.65
2018-12-26T16:02:29.915Z,18.37
2018-12-26T16:04:58.824Z,18.95
2018-12-26T16:07:28.184Z,19.40
2018-12-26T16:09:57.124Z,19.05
2018-12-26T16:12:26.050Z,19.55
2018-12-26T16:14:55.089Z,19.60
2018-12-26T16:17:24.359Z,19.80
2018-12-26T16:19:53.350Z,17.87
2018-12-26T16:22:22.676Z,20.08
2018-12-26T16:24:51.962Z,22.30
2018-12-26T16:27:21.569Z,21.00
2018-12-26T16:29:50.553Z,22.67
2018-12-26T16:32:20.166Z,21.80
2018-12-26T16:34:49.359Z,23.18
2018-12-26T16:37:18.761Z,23.20
2018-12-26T16:39:47.782Z,22.15
2018-12-26T16:42:17.046Z,21.82
2018-12-26T16:44:47.927Z,20.40
2018-12-26T16:47:17.200Z,20.60
2018-12-26T16:53:36.082Z,21.10
2018-12-26T16:59:47.239Z,18.87
2018-12-26T17:09:26.757Z,19.60
2018-12-26T17:11:56.417Z,17.77
2018-12-26T17:14:25.462Z,19.62
2018-12-26T17:16:54.687Z,19.92
2018-12-26T17:19:23.667Z,20.55
2018-12-26T17:21:52.661Z,21.00
2018-12-26T17:24:21.570Z,20.92
2018-12-26T17:26:50.841Z,21.45
2018-12-26T17:29:19.841Z,21.05
2018-12-26T17:31:49.045Z,20.15
2018-12-26T17:34:17.944Z,23.02
2018-12-26T17:36:47.323Z,19.62
2018-12-26T17:39:16.243Z,19.10
2018-12-26T17:41:45.440Z,17.95
2018-12-26T17:44:14.402Z,20.10
2018-12-26T17:46:43.470Z,19.98
2018-12-26T17:49:12.501Z,22.62
2018-12-26T17:51:41.689Z,23.22
2018-12-26T17:54:44.510Z,22.22
2018-12-26T18:04:11.575Z,21.23
2018-12-26T18:06:40.476Z,21.60
2018-12-26T18:09:09.868Z,21.00
2018-12-26T18:11:39.821Z,20.70
2018-12-26T18:14:08.906Z,21.93
2018-12-26T18:16:37.882Z,21.23
2018-12-26T18:19:06.767Z,21.90
2018-12-26T18:21:36.018Z,22.55
2018-12-26T18:24:05.104Z,23.00
2018-12-26T18:26:34.074Z,23.67
2018-12-26T18:29:02.956Z,22.25
2018-12-26T18:31:32.249Z,22.13
2018-12-26T18:34:01.288Z,20.32
2018-12-26T18:36:30.948Z,21.75
2018-12-26T18:39:00.262Z,20.12
2018-12-26T18:41:29.217Z,21.50
2018-12-26T18:43:58.554Z,21.23
2018-12-26T18:46:27.844Z,21.15
2018-12-26T18:48:56.794Z,19.75
2018-12-26T18:51:25.961Z,21.33
2018-12-26T18:53:55.283Z,20.85
2018-12-26T18:56:24.575Z,22.32
2018-12-26T18:58:53.829Z,20.00
2018-12-26T19:01:30.605Z,22.25
2018-12-26T19:03:54.126Z,21.35
2018-12-26T19:06:23.386Z,23.22
2018-12-26T19:08:52.767Z,22.73
2018-12-26T19:11:22.155Z,22.58
2018-12-26T19:13:51.834Z,21.75
2018-12-26T19:16:21.198Z,22.50
2018-12-26T19:18:50.603Z,21.55
2018-12-26T19:21:19.902Z,21.95
2018-12-26T19:23:49.198Z,22.60
2018-12-26T19:26:18.865Z,20.70
2018-12-26T19:28:48.439Z,19.92
2018-12-26T19:31:17.467Z,22.73
2018-12-26T19:33:46.793Z,21.85
2018-12-26T19:36:16.102Z,23.45
2018-12-26T19:38:45.782Z,23.77
2018-12-26T19:41:14.788Z,22.52
2018-12-26T19:43:44.337Z,23.50
2018-12-26T19:46:13.933Z,20.80
2018-12-26T19:48:43.861Z,23.22
2018-12-26T19:51:13.249Z,21.35
2018-12-26T19:53:42.251Z,22.67
2018-12-26T19:56:11.253Z,21.25
2018-12-26T19:58:40.845Z,20.50
2018-12-26T20:01:10.148Z,21.97
2018-12-26T20:03:39.428Z,20.48
2018-12-26T20:06:08.812Z,22.22
2018-12-26T20:12:19.556Z,24.20
2018-12-26T20:17:45.057Z,23.92
2018-12-26T20:23:56.506Z,26.97
2018-12-26T20:26:25.779Z,25.48
2018-12-26T20:28:54.705Z,22.02
2018-12-26T20:31:23.971Z,25.70
2018-12-26T20:33:53.085Z,23.32
2018-12-26T20:36:22.111Z,26.20
2018-12-26T20:38:53.811Z,25.32
2018-12-26T20:41:23.830Z,24.82
2018-12-26T20:43:53.735Z,23.15
2018-12-26T20:46:23.059Z,23.35
2018-12-26T20:48:52.323Z,21.48
2018-12-26T20:51:21.645Z,23.60
2018-12-26T20:53:51.452Z,23.15
2018-12-26T20:56:20.749Z,24.90
2018-12-26T20:58:50.010Z,22.32
2018-12-26T21:01:19.277Z,23.42
2018-12-26T21:03:49.322Z,22.95
2018-12-26T21:09:59.456Z,22.05
2018-12-26T21:12:30.019Z,21.65
2018-12-26T21:15:00.114Z,23.87
2018-12-26T21:17:29.188Z,24.50
2018-12-26T21:19:58.597Z,23.18
2018-12-26T21:25:38.721Z,23.40
2018-12-26T21:31:48.398Z,23.40
2018-12-26T21:34:17.784Z,23.98
2018-12-26T21:36:47.168Z,23.90
2018-12-26T21:39:16.438Z,23.83
2018-12-26T21:41:45.440Z,22.30
2018-12-26T21:44:15.284Z,21.60
2018-12-26T21:46:44.262Z,22.70
2018-12-26T21:49:13.228Z,23.62
2018-12-26T21:51:42.289Z,23.92
2018-12-26T21:54:11.425Z,23.22
2018-12-26T21:56:41.132Z,25.12
2018-12-26T21:59:10.087Z,24.65
2018-12-26T22:01:39.430Z,26.55
2018-12-26T22:04:09.041Z,28.40
2018-12-26T22:06:38.234Z,26.80
2018-12-26T22:09:07.802Z,23.52
2018-12-26T22:11:36.827Z,22.75
2018-12-26T22:14:06.245Z,23.47
2018-12-26T22:16:35.690Z,22.37
2018-12-26T22:19:04.734Z,21.07
2018-12-26T22:21:34.062Z,21.48
2018-12-26T22:24:03.465Z,21.12
2018-12-26T22:26:33.480Z,22.30
2018-12-26T22:29:04.329Z,24.10
2018-12-26T22:31:33.403Z,24.30
2018-12-26T22:34:02.622Z,23.95
2018-12-26T22:36:32.315Z,21.02
2018-12-26T22:39:01.889Z,22.07
2018-12-26T22:41:30.948Z,23.80
2018-12-26T22:44:00.085Z,23.70
2018-12-26T22:46:29.438Z,23.57
2018-12-26T22:48:58.873Z,23.15
2018-12-26T22:51:27.865Z,24.30
2018-12-26T22:53:57.362Z,25.37
2018-12-26T22:56:26.324Z,21.75
2018-12-26T22:58:55.592Z,24.07
2018-12-26T23:01:24.871Z,26.75
2018-12-26T23:03:54.012Z,23.38
2018-12-26T23:06:23.807Z,23.52
2018-12-26T23:08:52.812Z,25.23
2018-12-26T23:11:23.666Z,24.23
2018-12-26T23:13:52.633Z,22.75
2018-12-26T23:16:22.121Z,20.70
2018-12-26T23:18:51.059Z,23.83
2018-12-26T23:21:20.051Z,18.92
2018-12-26T23:23:49.513Z,20.97
2018-12-26T23:26:19.227Z,21.15
2018-12-26T23:28:48.757Z,21.60
2018-12-26T23:31:17.857Z,19.80
2018-12-26T23:33:47.393Z,20.52
2018-12-26T23:36:17.617Z,20.48
2018-12-26T23:38:47.816Z,21.00
2018-12-26T23:41:17.499Z,19.90
2018-12-26T23:43:47.199Z,19.62
2018-12-26T23:46:16.201Z,20.52
2018-12-26T23:48:46.246Z,21.10
2018-12-26T23:51:16.917Z,19.92
2018-12-26T23:53:46.387Z,19.85
2018-12-26T23:56:15.670Z,20.92
2018-12-26T23:58:44.895Z,20.52
